Time;durP1;ratioP1;P1;durP2;ratioP2;P2;SDS_P1;SDS_P2;PMS_P1;PMS_P2;Temp;Humidity;BMP_temperature;BMP_pressure;BME280_temperature;BME280_humidity;BME280_pressure;Samples;Min_cycle;Max_cycle;Signal;HPM_P1;HPM_P2
2021/11/29 00:00:01;;;;;;;4.70;4.27;;;;;;;;;;2081942;28;20171;-58
2021/11/29 00:01:04;;;;;;;4.40;3.97;;;;;;;;;;2082274;28;20176;-56
2021/11/29 00:02:07;;;;;;;4.70;4.27;;;;;;;;;;2098575;22;20755;-58
2021/11/29 00:03:09;;;;;;;5.67;4.33;;;;;;;;;;2075175;28;20231;-65
2021/11/29 00:04:10;;;;;;;4.87;4.10;;;;;;;;;;2079394;28;20573;-66
2021/11/29 00:05:10;;;;;;;4.90;4.00;;;;;;;;;;2081512;28;20211;-67
2021/11/29 00:06:10;;;;;;;3.90;3.67;;;;;;;;;;2081448;28;20210;-65
2021/11/29 00:07:11;;;;;;;6.30;4.77;;;;;;;;;;2080873;28;20249;-63
2021/11/29 00:08:11;;;;;;;5.00;4.50;;;;;;;;;;2082554;28;20192;-63
2021/11/29 00:09:13;;;;;;;7.13;4.80;;;;;;;;;;2082823;28;20203;-64
2021/11/29 00:10:13;;;;;;;5.17;4.67;;;;;;;;;;2083037;28;20165;-64
2021/11/29 00:11:14;;;;;;;4.47;4.17;;;;;;;;;;2081611;28;20183;-64
2021/11/29 00:12:14;;;;;;;4.57;4.17;;;;;;;;;;2081795;28;20644;-63
2021/11/29 00:13:15;;;;;;;8.50;5.43;;;;;;;;;;2073863;28;20253;-65
2021/11/29 00:14:15;;;;;;;4.97;4.63;;;;;;;;;;2073823;28;20165;-62
2021/11/29 00:15:15;;;;;;;5.10;4.70;;;;;;;;;;2074722;28;20173;-63
2021/11/29 00:16:16;;;;;;;5.53;5.03;;;;;;;;;;2074548;28;20274;-64
2021/11/29 00:17:16;;;;;;;5.53;5.03;;;;;;;;;;2074084;28;20171;-64
2021/11/29 00:18:17;;;;;;;6.03;5.50;;;;;;;;;;2073258;28;20567;-65
2021/11/29 00:19:17;;;;;;;6.13;5.53;;;;;;;;;;2074007;28;20227;-64
2021/11/29 00:20:17;;;;;;;5.87;5.30;;;;;;;;;;2074329;28;20192;-64
2021/11/29 00:21:18;;;;;;;5.70;5.23;;;;;;;;;;2074636;28;20177;-65
2021/11/29 00:22:18;;;;;;;6.17;5.60;;;;;;;;;;2068681;28;20177;-62
2021/11/29 00:23:19;;;;;;;6.47;5.93;;;;;;;;;;2074194;28;20187;-63
2021/11/29 00:24:19;;;;;;;7.90;6.37;;;;;;;;;;2073621;28;20173;-60
2021/11/29 00:25:20;;;;;;;7.70;6.80;;;;;;;;;;2067859;28;20608;-64
2021/11/29 00:26:21;;;;;;;6.93;6.30;;;;;;;;;;2073982;28;20239;-64
2021/11/29 00:27:21;;;;;;;5.63;5.13;;;;;;;;;;2074383;28;20184;-65
2021/11/29 00:28:21;;;;;;;7.10;6.47;;;;;;;;;;2074439;28;20189;-65
2021/11/29 00:29:22;;;;;;;6.43;5.87;;;;;;;;;;2074728;28;20173;-64
2021/11/29 00:30:22;;;;;;;8.63;6.57;;;;;;;;;;2074501;28;20626;-64
2021/11/29 00:31:22;;;;;;;7.33;6.43;;;;;;;;;;2074182;28;20201;-63
2021/11/29 00:32:23;;;;;;;8.13;7.33;;;;;;;;;;2074384;28;20291;-65
2021/11/29 00:33:24;;;;;;;8.33;6.43;;;;;;;;;;2074579;28;20663;-64
2021/11/29 00:34:24;;;;;;;8.43;6.43;;;;;;;;;;2073243;28;20188;-65
2021/11/29 00:35:24;;;;;;;6.87;6.27;;;;;;;;;;2073889;28;20204;-65
2021/11/29 00:36:25;;;;;;;6.90;6.20;;;;;;;;;;2074593;28;20207;-65
2021/11/29 00:37:25;;;;;;;8.17;6.30;;;;;;;;;;2073530;28;20669;-64
2021/11/29 00:38:26;;;;;;;6.60;6.00;;;;;;;;;;2065533;28;20217;-65
2021/11/29 00:39:26;;;;;;;6.90;6.20;;;;;;;;;;2065594;28;20517;-65
2021/11/29 00:40:27;;;;;;;7.93;6.83;;;;;;;;;;2073892;28;20271;-65
2021/11/29 00:41:27;;;;;;;7.43;6.67;;;;;;;;;;2074370;28;20185;-65
2021/11/29 00:42:27;;;;;;;6.93;6.33;;;;;;;;;;2073410;28;20197;-64
2021/11/29 00:43:28;;;;;;;8.10;6.23;;;;;;;;;;2074538;28;20173;-66
2021/11/29 00:44:28;;;;;;;7.10;6.50;;;;;;;;;;2074181;28;20177;-66
2021/11/29 00:45:29;;;;;;;6.50;5.93;;;;;;;;;;2074603;28;20506;-64
2021/11/29 00:46:29;;;;;;;6.47;5.97;;;;;;;;;;2073944;28;20715;-65
2021/11/29 00:47:29;;;;;;;6.53;6.00;;;;;;;;;;2073806;28;20563;-64
2021/11/29 00:48:29;;;;;;;6.13;5.50;;;;;;;;;;2074467;28;20200;-65
2021/11/29 00:49:30;;;;;;;10.03;6.80;;;;;;;;;;2073646;28;20181;-63
2021/11/29 00:50:30;;;;;;;6.40;5.90;;;;;;;;;;2069342;28;20196;-64
2021/11/29 00:51:31;;;;;;;9.67;5.80;;;;;;;;;;2072976;28;20169;-61
2021/11/29 00:52:31;;;;;;;6.67;5.90;;;;;;;;;;2072985;28;20235;-64
2021/11/29 00:53:32;;;;;;;6.23;5.63;;;;;;;;;;2065455;28;20240;-65
2021/11/29 00:54:32;;;;;;;12.10;6.00;;;;;;;;;;2073290;28;20185;-64
2021/11/29 00:55:33;;;;;;;6.60;6.00;;;;;;;;;;2073381;28;20255;-64
2021/11/29 00:56:33;;;;;;;7.33;6.00;;;;;;;;;;2073197;28;20181;-64
2021/11/29 00:57:34;;;;;;;8.50;5.87;;;;;;;;;;2073593;28;20177;-64
2021/11/29 00:58:34;;;;;;;5.87;5.47;;;;;;;;;;2073997;28;20177;-65
2021/11/29 00:59:34;;;;;;;6.53;5.83;;;;;;;;;;2074450;28;20168;-64
2021/11/29 01:00:35;;;;;;;8.40;5.90;;;;;;;;;;2074243;28;20256;-64
2021/11/29 01:01:36;;;;;;;6.57;5.87;;;;;;;;;;2073362;28;20180;-65
2021/11/29 01:02:36;;;;;;;8.60;5.60;;;;;;;;;;2065353;28;20245;-65
2021/11/29 01:03:38;;;;;;;6.43;5.20;;;;;;;;;;2073851;28;20176;-65
2021/11/29 01:04:39;;;;;;;6.80;6.13;;;;;;;;;;2073975;28;20177;-65
2021/11/29 01:05:39;;;;;;;5.53;4.87;;;;;;;;;;2072334;28;20169;-65
2021/11/29 01:06:40;;;;;;;10.70;6.03;;;;;;;;;;2069678;28;20207;-66
2021/11/29 01:07:40;;;;;;;8.77;6.63;;;;;;;;;;2073950;28;20179;-66
2021/11/29 01:08:41;;;;;;;6.90;5.87;;;;;;;;;;2074248;28;20204;-64
2021/11/29 01:09:41;;;;;;;9.23;5.50;;;;;;;;;;2074032;28;20177;-62
2021/11/29 01:10:42;;;;;;;5.40;4.47;;;;;;;;;;2074340;28;20176;-64
2021/11/29 01:11:42;;;;;;;4.87;4.57;;;;;;;;;;2074085;28;20169;-62
2021/11/29 01:12:43;;;;;;;6.63;5.23;;;;;;;;;;2073978;28;20201;-64
2021/11/29 01:13:43;;;;;;;6.20;5.23;;;;;;;;;;2074177;28;20223;-64
2021/11/29 01:14:44;;;;;;;5.87;4.63;;;;;;;;;;2074085;28;20169;-63
2021/11/29 01:15:45;;;;;;;6.00;5.30;;;;;;;;;;2074045;28;20362;-65
2021/11/29 01:16:45;;;;;;;5.37;4.90;;;;;;;;;;2073765;28;20244;-64
2021/11/29 01:17:46;;;;;;;6.77;4.97;;;;;;;;;;2076876;28;20692;-65
2021/11/29 01:18:46;;;;;;;6.37;5.93;;;;;;;;;;2078720;28;20191;-65
2021/11/29 01:19:47;;;;;;;5.63;5.13;;;;;;;;;;2074636;28;20554;-60
2021/11/29 01:20:47;;;;;;;5.13;4.60;;;;;;;;;;2074428;28;20176;-64
2021/11/29 01:21:47;;;;;;;4.97;4.60;;;;;;;;;;2070375;28;20260;-62
2021/11/29 01:22:48;;;;;;;5.30;4.80;;;;;;;;;;2071225;28;20185;-61
2021/11/29 01:23:48;;;;;;;6.13;5.13;;;;;;;;;;2073366;28;20169;-62
2021/11/29 01:24:48;;;;;;;10.37;5.67;;;;;;;;;;2072505;28;20185;-64
2021/11/29 01:25:50;;;;;;;4.90;4.50;;;;;;;;;;2065250;28;20180;-64
2021/11/29 01:26:50;;;;;;;5.53;4.90;;;;;;;;;;2071543;28;20193;-63
2021/11/29 01:27:51;;;;;;;9.37;5.37;;;;;;;;;;2073849;28;20169;-65
2021/11/29 01:28:51;;;;;;;5.13;4.73;;;;;;;;;;2074268;28;20196;-65
2021/11/29 01:29:51;;;;;;;5.10;4.43;;;;;;;;;;2073371;28;20267;-64
2021/11/29 01:30:52;;;;;;;5.23;4.70;;;;;;;;;;2073415;28;20170;-64
2021/11/29 01:31:52;;;;;;;5.20;4.63;;;;;;;;;;2073709;28;20169;-63
2021/11/29 01:32:53;;;;;;;6.10;4.90;;;;;;;;;;2073603;28;20280;-62
2021/11/29 01:33:53;;;;;;;6.27;5.03;;;;;;;;;;2074133;28;20169;-65
2021/11/29 01:34:54;;;;;;;10.77;4.43;;;;;;;;;;2064727;28;20182;-66
2021/11/29 01:35:54;;;;;;;6.77;5.43;;;;;;;;;;2065516;28;20170;-63
2021/11/29 01:36:54;;;;;;;5.40;4.50;;;;;;;;;;2070265;28;20263;-62
2021/11/29 01:37:55;;;;;;;4.50;4.10;;;;;;;;;;2072555;28;20176;-64
2021/11/29 01:38:55;;;;;;;5.03;4.50;;;;;;;;;;2074074;28;20541;-62
2021/11/29 01:39:55;;;;;;;5.00;4.60;;;;;;;;;;2074115;28;20266;-63
2021/11/29 01:40:56;;;;;;;9.97;4.63;;;;;;;;;;2073964;28;20299;-64
2021/11/29 01:41:56;;;;;;;4.87;4.20;;;;;;;;;;2073737;28;20260;-64
2021/11/29 01:42:58;;;;;;;14.83;4.97;;;;;;;;;;2072203;28;20562;-63
2021/11/29 01:43:59;;;;;;;7.93;4.23;;;;;;;;;;2080987;28;20167;-63
2021/11/29 01:44:59;;;;;;;7.20;4.60;;;;;;;;;;2074654;28;20262;-62
2021/11/29 01:46:00;;;;;;;6.87;4.60;;;;;;;;;;2081173;28;20207;-64
2021/11/29 01:47:00;;;;;;;5.60;4.00;;;;;;;;;;2074295;28;20169;-65
2021/11/29 01:48:00;;;;;;;4.93;4.10;;;;;;;;;;2080665;28;20664;-64
2021/11/29 01:49:01;;;;;;;5.10;4.40;;;;;;;;;;2065099;28;20310;-61
2021/11/29 01:50:01;;;;;;;7.83;4.17;;;;;;;;;;2056906;28;20248;-62
2021/11/29 01:51:03;;;;;;;6.80;4.43;;;;;;;;;;2072609;28;20173;-62
2021/11/29 01:52:03;;;;;;;5.00;4.40;;;;;;;;;;2072782;28;20288;-59
2021/11/29 01:53:04;;;;;;;6.77;4.13;;;;;;;;;;2074606;28;20173;-64
2021/11/29 01:54:05;;;;;;;7.37;4.53;;;;;;;;;;2067810;28;20201;-62
2021/11/29 01:55:05;;;;;;;5.27;4.77;;;;;;;;;;2071953;28;20180;-63
2021/11/29 01:56:06;;;;;;;7.47;4.33;;;;;;;;;;2073612;28;20191;-62
2021/11/29 01:57:06;;;;;;;8.30;4.47;;;;;;;;;;2072413;28;20247;-65
2021/11/29 01:58:07;;;;;;;9.73;4.20;;;;;;;;;;2073402;28;20648;-64
2021/11/29 01:59:07;;;;;;;3.93;3.53;;;;;;;;;;2073882;28;20213;-65
2021/11/29 02:00:09;;;;;;;3.93;3.30;;;;;;;;;;2073151;28;20180;-63
2021/11/29 02:01:14;;;;;;;6.93;3.80;;;;;;;;;;2065732;28;20243;-65
2021/11/29 02:02:14;;;;;;;5.43;4.53;;;;;;;;;;2072929;28;20410;-63
2021/11/29 02:03:15;;;;;;;5.33;3.87;;;;;;;;;;2073119;28;20252;-67
2021/11/29 02:04:15;;;;;;;4.73;3.83;;;;;;;;;;2072959;28;20184;-65
2021/11/29 02:05:16;;;;;;;4.57;3.70;;;;;;;;;;2073134;28;20247;-64
2021/11/29 02:06:17;;;;;;;5.63;3.80;;;;;;;;;;2073330;28;20267;-64
2021/11/29 02:07:17;;;;;;;5.03;3.97;;;;;;;;;;2072710;28;20180;-64
2021/11/29 02:08:18;;;;;;;4.40;3.47;;;;;;;;;;2072728;28;20238;-63
2021/11/29 02:09:18;;;;;;;5.63;3.83;;;;;;;;;;2064409;28;20217;-65
2021/11/29 02:10:20;;;;;;;5.00;4.23;;;;;;;;;;2065059;28;20198;-66
2021/11/29 02:11:22;;;;;;;4.50;4.10;;;;;;;;;;2073147;28;20193;-64
2021/11/29 02:12:22;;;;;;;3.90;3.67;;;;;;;;;;2073639;28;20552;-64
2021/11/29 02:13:23;;;;;;;7.70;3.70;;;;;;;;;;2073801;28;20263;-65
2021/11/29 02:14:23;;;;;;;4.43;3.97;;;;;;;;;;2064906;28;20186;-63
2021/11/29 02:15:23;;;;;;;7.30;3.80;;;;;;;;;;2064951;28;20260;-65
2021/11/29 02:16:24;;;;;;;4.00;3.50;;;;;;;;;;2073697;28;20235;-65
2021/11/29 02:17:24;;;;;;;4.90;3.90;;;;;;;;;;2073554;28;20177;-64
2021/11/29 02:18:26;;;;;;;5.07;3.60;;;;;;;;;;2073942;28;20183;-64
2021/11/29 02:19:27;;;;;;;4.17;3.70;;;;;;;;;;2073219;28;20176;-64
2021/11/29 02:20:29;;;;;;;6.37;4.10;;;;;;;;;;2073003;28;20176;-62
2021/11/29 02:21:33;;;;;;;6.17;4.00;;;;;;;;;;2073257;28;20176;-64
2021/11/29 02:22:33;;;;;;;4.63;3.60;;;;;;;;;;2073593;28;20205;-65
2021/11/29 02:23:37;;;;;;;4.30;3.70;;;;;;;;;;2073896;28;20311;-64
2021/11/29 02:24:38;;;;;;;7.27;4.40;;;;;;;;;;2070718;28;20653;-64
2021/11/29 02:25:38;;;;;;;3.50;3.20;;;;;;;;;;2066021;28;20166;-65
2021/11/29 02:26:38;;;;;;;5.13;3.70;;;;;;;;;;2069773;28;20168;-65
2021/11/29 02:27:43;;;;;;;3.97;3.57;;;;;;;;;;2072890;28;20650;-65
2021/11/29 02:28:45;;;;;;;3.77;3.47;;;;;;;;;;2073043;28;20192;-64
2021/11/29 02:29:45;;;;;;;4.37;3.97;;;;;;;;;;2073211;28;20169;-65
2021/11/29 02:30:46;;;;;;;3.83;2.90;;;;;;;;;;2073073;28;20645;-63
2021/11/29 02:31:48;;;;;;;3.50;3.20;;;;;;;;;;2073972;28;20161;-63
2021/11/29 02:32:50;;;;;;;8.23;3.97;;;;;;;;;;2073481;28;20574;-64
2021/11/29 02:33:50;;;;;;;3.50;3.20;;;;;;;;;;2073691;28;20180;-64
2021/11/29 02:34:50;;;;;;;3.93;3.20;;;;;;;;;;2073173;28;20248;-64
2021/11/29 02:35:51;;;;;;;3.63;3.20;;;;;;;;;;2073166;28;20176;-65
2021/11/29 02:36:52;;;;;;;6.80;4.20;;;;;;;;;;2073090;28;20607;-66
2021/11/29 02:37:52;;;;;;;7.33;3.50;;;;;;;;;;2073654;28;20201;-64
2021/11/29 02:38:53;;;;;;;4.80;3.40;;;;;;;;;;2073577;28;20603;-65
2021/11/29 02:39:53;;;;;;;4.90;3.67;;;;;;;;;;2073853;28;20213;-63
2021/11/29 02:40:54;;;;;;;6.90;3.73;;;;;;;;;;2072871;28;20688;-64
2021/11/29 02:41:55;;;;;;;4.57;3.57;;;;;;;;;;2072419;28;20207;-65
2021/11/29 02:42:55;;;;;;;3.47;3.20;;;;;;;;;;2071861;28;20268;-64
2021/11/29 02:43:56;;;;;;;4.27;3.50;;;;;;;;;;2073008;28;20907;-63
2021/11/29 02:44:56;;;;;;;4.17;2.93;;;;;;;;;;2073108;28;20630;-63
2021/11/29 02:45:56;;;;;;;4.17;3.30;;;;;;;;;;2072494;28;20169;-64
2021/11/29 02:46:57;;;;;;;6.73;3.20;;;;;;;;;;2072360;28;20315;-63
2021/11/29 02:47:57;;;;;;;5.40;3.10;;;;;;;;;;2072675;28;20278;-62
2021/11/29 02:48:58;;;;;;;3.87;3.30;;;;;;;;;;2072826;28;20629;-64
2021/11/29 02:49:58;;;;;;;3.47;3.17;;;;;;;;;;2072799;28;20165;-65
2021/11/29 02:50:59;;;;;;;6.67;3.23;;;;;;;;;;2073615;28;20165;-64
2021/11/29 02:52:01;;;;;;;3.70;3.33;;;;;;;;;;2072426;28;20696;-63
2021/11/29 02:53:03;;;;;;;6.63;4.03;;;;;;;;;;2070998;28;20845;-63
2021/11/29 02:54:05;;;;;;;5.13;3.27;;;;;;;;;;2072590;28;20184;-64
2021/11/29 02:55:06;;;;;;;5.67;3.40;;;;;;;;;;2072429;28;20180;-60
2021/11/29 02:56:06;;;;;;;7.00;2.87;;;;;;;;;;2064282;28;20204;-65
2021/11/29 02:57:08;;;;;;;9.23;3.70;;;;;;;;;;2072355;28;20633;-65
2021/11/29 02:58:08;;;;;;;6.17;3.33;;;;;;;;;;2072841;28;20169;-64
2021/11/29 02:59:13;;;;;;;3.17;2.83;;;;;;;;;;2072974;28;20836;-67
2021/11/29 03:00:14;;;;;;;4.93;3.20;;;;;;;;;;2073438;28;20191;-63
2021/11/29 03:01:14;;;;;;;4.03;2.73;;;;;;;;;;2073725;28;20165;-66
2021/11/29 03:02:17;;;;;;;4.47;3.40;;;;;;;;;;2073345;28;20176;-65
2021/11/29 03:03:17;;;;;;;4.53;3.33;;;;;;;;;;2073269;28;20184;-64
2021/11/29 03:04:18;;;;;;;5.20;3.30;;;;;;;;;;2072829;28;20227;-65
2021/11/29 03:05:18;;;;;;;7.57;3.87;;;;;;;;;;2073033;28;20185;-65
2021/11/29 03:06:19;;;;;;;3.80;3.20;;;;;;;;;;2072641;28;20263;-64
2021/11/29 03:07:19;;;;;;;4.10;3.70;;;;;;;;;;2064918;28;20662;-64
2021/11/29 03:08:19;;;;;;;3.57;3.27;;;;;;;;;;2063907;28;20579;-64
2021/11/29 03:09:20;;;;;;;4.70;2.90;;;;;;;;;;2064374;28;20204;-67
2021/11/29 03:10:20;;;;;;;5.03;3.23;;;;;;;;;;2072052;28;20183;-65
2021/11/29 03:11:20;;;;;;;3.07;2.77;;;;;;;;;;2073544;28;20173;-65
2021/11/29 03:12:21;;;;;;;3.73;2.97;;;;;;;;;;2071641;28;20220;-65
2021/11/29 03:13:21;;;;;;;3.73;3.07;;;;;;;;;;2072216;28;20173;-66
2021/11/29 03:14:22;;;;;;;3.70;3.37;;;;;;;;;;2071941;28;20774;-63
2021/11/29 03:15:22;;;;;;;6.60;3.07;;;;;;;;;;2069127;28;20164;-65
2021/11/29 03:16:23;;;;;;;5.90;3.30;;;;;;;;;;2072592;28;20268;-65
2021/11/29 03:17:23;;;;;;;5.20;3.33;;;;;;;;;;2072588;28;20256;-66
2021/11/29 03:18:27;;;;;;;4.97;2.63;;;;;;;;;;2071964;28;20559;-66
2021/11/29 03:19:29;;;;;;;4.03;2.70;;;;;;;;;;2071588;28;20193;-64
2021/11/29 03:20:29;;;;;;;2.90;2.70;;;;;;;;;;2059100;28;20650;-64
2021/11/29 03:21:30;;;;;;;4.37;3.03;;;;;;;;;;2072314;28;20172;-61
2021/11/29 03:22:30;;;;;;;4.00;3.00;;;;;;;;;;2071650;28;20712;-60
2021/11/29 03:23:31;;;;;;;5.57;3.20;;;;;;;;;;2072372;28;20181;-61
2021/11/29 03:24:31;;;;;;;3.47;3.00;;;;;;;;;;2072322;28;20177;-64
2021/11/29 03:25:33;;;;;;;4.00;2.70;;;;;;;;;;2072775;28;20177;-63
2021/11/29 03:26:34;;;;;;;3.07;2.77;;;;;;;;;;2072944;28;20669;-64
2021/11/29 03:27:34;;;;;;;4.40;2.80;;;;;;;;;;2072774;28;20552;-63
2021/11/29 03:28:36;;;;;;;7.43;2.70;;;;;;;;;;2071959;28;20216;-65
2021/11/29 03:29:36;;;;;;;4.97;3.33;;;;;;;;;;2071777;28;20176;-63
2021/11/29 03:30:37;;;;;;;6.13;3.53;;;;;;;;;;2071905;28;20688;-64
2021/11/29 03:31:38;;;;;;;4.70;3.40;;;;;;;;;;2072073;28;20680;-63
2021/11/29 03:32:38;;;;;;;4.53;3.17;;;;;;;;;;2071545;28;20234;-63
2021/11/29 03:33:40;;;;;;;3.67;2.90;;;;;;;;;;2071885;28;20648;-64
2021/11/29 03:34:40;;;;;;;6.73;3.47;;;;;;;;;;2072199;28;20189;-65
2021/11/29 03:35:41;;;;;;;5.27;2.90;;;;;;;;;;2071667;28;20252;-61
2021/11/29 03:36:43;;;;;;;3.97;2.83;;;;;;;;;;2068834;28;20598;-64
2021/11/29 03:37:43;;;;;;;6.27;3.70;;;;;;;;;;2068465;28;20173;-63
2021/11/29 03:38:43;;;;;;;10.37;3.40;;;;;;;;;;2071886;28;20195;-63
2021/11/29 03:39:44;;;;;;;7.13;3.00;;;;;;;;;;2069317;28;20256;-62
2021/11/29 03:40:44;;;;;;;4.23;2.93;;;;;;;;;;2072541;28;20268;-65
2021/11/29 03:41:45;;;;;;;3.50;2.80;;;;;;;;;;2072026;28;20185;-63
2021/11/29 03:42:45;;;;;;;3.30;2.80;;;;;;;;;;2069714;28;20670;-65
2021/11/29 03:43:45;;;;;;;2.87;2.50;;;;;;;;;;2072113;28;20191;-65
2021/11/29 03:44:46;;;;;;;7.17;2.90;;;;;;;;;;2070955;28;20227;-64
2021/11/29 03:45:46;;;;;;;4.67;2.33;;;;;;;;;;2071802;28;20196;-64
2021/11/29 03:46:47;;;;;;;4.33;2.30;;;;;;;;;;2072246;28;20649;-64
2021/11/29 03:47:48;;;;;;;2.43;2.13;;;;;;;;;;2069870;28;20796;-64
2021/11/29 03:48:48;;;;;;;2.80;2.60;;;;;;;;;;2072350;28;20193;-65
2021/11/29 03:49:49;;;;;;;4.07;2.30;;;;;;;;;;2071817;28;20251;-62
2021/11/29 03:50:49;;;;;;;5.63;2.67;;;;;;;;;;2072205;28;20177;-65
2021/11/29 03:51:50;;;;;;;8.90;3.40;;;;;;;;;;2071813;28;20636;-64
2021/11/29 03:52:50;;;;;;;2.67;2.47;;;;;;;;;;2072109;28;20223;-64
2021/11/29 03:53:51;;;;;;;5.57;2.50;;;;;;;;;;2071096;28;20239;-63
2021/11/29 03:54:52;;;;;;;5.33;2.87;;;;;;;;;;2070602;28;20202;-63
2021/11/29 03:55:52;;;;;;;3.37;2.77;;;;;;;;;;2071828;28;20176;-64
2021/11/29 03:56:52;;;;;;;3.13;2.83;;;;;;;;;;2067941;28;20213;-59
2021/11/29 03:57:53;;;;;;;3.57;2.87;;;;;;;;;;2070534;28;20197;-58
2021/11/29 03:58:53;;;;;;;6.37;3.97;;;;;;;;;;2072138;28;20691;-66
2021/11/29 03:59:53;;;;;;;4.90;3.30;;;;;;;;;;2072563;28;20184;-63
2021/11/29 04:00:54;;;;;;;4.33;2.87;;;;;;;;;;2072646;28;20223;-65
2021/11/29 04:01:55;;;;;;;5.87;2.93;;;;;;;;;;2073128;28;20637;-64
2021/11/29 04:02:56;;;;;;;3.60;2.57;;;;;;;;;;2071986;28;20208;-64
2021/11/29 04:03:56;;;;;;;4.13;2.47;;;;;;;;;;2073152;28;20172;-65
2021/11/29 04:04:57;;;;;;;3.30;2.53;;;;;;;;;;2072354;28;20189;-62
2021/11/29 04:05:57;;;;;;;3.87;2.70;;;;;;;;;;2072185;28;20184;-66
2021/11/29 04:06:57;;;;;;;2.33;2.03;;;;;;;;;;2071973;28;20585;-63
2021/11/29 04:07:58;;;;;;;3.13;2.87;;;;;;;;;;2072666;28;20635;-64
2021/11/29 04:08:58;;;;;;;4.43;2.53;;;;;;;;;;2069050;28;20291;-63
2021/11/29 04:09:58;;;;;;;6.47;2.63;;;;;;;;;;2071235;28;20200;-65
2021/11/29 04:10:59;;;;;;;4.60;2.80;;;;;;;;;;2071476;28;20192;-64
2021/11/29 04:11:59;;;;;;;3.53;2.53;;;;;;;;;;2073042;28;20264;-60
2021/11/29 04:12:59;;;;;;;2.87;2.67;;;;;;;;;;2070998;28;20200;-64
2021/11/29 04:14:00;;;;;;;5.33;2.77;;;;;;;;;;2071387;28;20197;-60
2021/11/29 04:15:00;;;;;;;5.50;2.87;;;;;;;;;;2071589;28;20589;-64
2021/11/29 04:16:01;;;;;;;6.33;2.40;;;;;;;;;;2064372;28;20177;-61
2021/11/29 04:17:01;;;;;;;4.53;2.77;;;;;;;;;;2071265;28;20256;-65
2021/11/29 04:18:01;;;;;;;4.20;3.13;;;;;;;;;;2071268;28;20260;-64
2021/11/29 04:19:03;;;;;;;3.27;2.93;;;;;;;;;;2071677;28;20191;-63
2021/11/29 04:20:03;;;;;;;5.23;2.90;;;;;;;;;;2072529;28;20173;-63
2021/11/29 04:21:05;;;;;;;3.43;3.00;;;;;;;;;;2065658;28;20189;-64
2021/11/29 04:22:05;;;;;;;3.47;2.10;;;;;;;;;;2072651;28;20197;-64
2021/11/29 04:23:06;;;;;;;2.70;2.50;;;;;;;;;;2071381;28;20611;-62
2021/11/29 04:24:06;;;;;;;6.37;3.27;;;;;;;;;;2072339;28;20185;-61
2021/11/29 04:25:07;;;;;;;2.90;2.70;;;;;;;;;;2071696;28;20191;-61
2021/11/29 04:26:10;;;;;;;4.37;2.90;;;;;;;;;;2071654;28;20573;-62
2021/11/29 04:27:11;;;;;;;5.53;3.07;;;;;;;;;;2072409;28;20235;-62
2021/11/29 04:28:11;;;;;;;10.77;2.80;;;;;;;;;;2072314;28;20227;-62
2021/11/29 04:29:19;;;;;;;2.93;2.70;;;;;;;;;;2072100;28;20622;-60
2021/11/29 04:30:23;;;;;;;4.10;2.63;;;;;;;;;;2072023;28;20282;-60
2021/11/29 04:31:23;;;;;;;2.87;2.67;;;;;;;;;;2068273;28;20513;-60
2021/11/29 04:32:23;;;;;;;4.77;2.37;;;;;;;;;;2072859;28;20216;-61
2021/11/29 04:33:24;;;;;;;3.23;2.77;;;;;;;;;;2074462;28;20220;-61
2021/11/29 04:34:24;;;;;;;4.53;2.80;;;;;;;;;;2073744;28;20181;-62
2021/11/29 04:35:25;;;;;;;4.37;2.90;;;;;;;;;;2065367;28;20177;-61
2021/11/29 04:36:25;;;;;;;5.50;2.80;;;;;;;;;;2065309;28;20202;-63
2021/11/29 04:37:26;;;;;;;5.50;2.90;;;;;;;;;;2074581;28;20823;-62
2021/11/29 04:38:26;;;;;;;3.80;3.27;;;;;;;;;;2069727;28;20192;-64
2021/11/29 04:39:26;;;;;;;5.77;2.60;;;;;;;;;;2073757;28;20181;-64
2021/11/29 04:40:27;;;;;;;4.23;2.80;;;;;;;;;;2073597;28;20563;-62
2021/11/29 04:41:27;;;;;;;3.23;2.87;;;;;;;;;;2073674;28;20196;-62
2021/11/29 04:42:28;;;;;;;4.07;2.90;;;;;;;;;;2072794;28;20212;-61
2021/11/29 04:43:28;;;;;;;7.80;2.80;;;;;;;;;;2072896;28;20185;-58
2021/11/29 04:44:29;;;;;;;7.17;3.37;;;;;;;;;;2069111;28;20185;-64
2021/11/29 04:45:30;;;;;;;6.60;3.17;;;;;;;;;;2073621;28;20227;-59
2021/11/29 04:46:30;;;;;;;3.37;2.60;;;;;;;;;;2068820;28;20169;-61
2021/11/29 04:47:31;;;;;;;3.53;3.17;;;;;;;;;;2064952;28;20494;-66
2021/11/29 04:48:31;;;;;;;4.63;3.53;;;;;;;;;;2073686;28;20209;-62
2021/11/29 04:49:31;;;;;;;5.83;3.17;;;;;;;;;;2073121;28;20173;-62
2021/11/29 04:50:32;;;;;;;3.07;2.80;;;;;;;;;;2073455;28;20177;-62
2021/11/29 04:51:32;;;;;;;4.77;3.63;;;;;;;;;;2073653;28;20169;-64
2021/11/29 04:52:33;;;;;;;5.77;2.90;;;;;;;;;;2074026;28;20251;-64
2021/11/29 04:53:35;;;;;;;3.80;2.70;;;;;;;;;;2075043;28;20165;-65
2021/11/29 04:54:35;;;;;;;6.40;3.60;;;;;;;;;;2073422;28;20164;-64
2021/11/29 04:55:35;;;;;;;8.23;2.90;;;;;;;;;;2073044;28;20426;-66
2021/11/29 04:56:39;;;;;;;4.73;3.33;;;;;;;;;;2071899;28;20192;-64
2021/11/29 04:57:40;;;;;;;5.30;3.00;;;;;;;;;;2070215;28;20188;-64
2021/11/29 04:58:40;;;;;;;3.43;3.13;;;;;;;;;;2074012;28;20705;-62
2021/11/29 04:59:41;;;;;;;4.30;2.63;;;;;;;;;;2069980;28;20664;-64
2021/11/29 05:00:41;;;;;;;4.03;3.00;;;;;;;;;;2072930;28;20173;-62
2021/11/29 05:01:41;;;;;;;5.53;3.30;;;;;;;;;;2073518;28;20169;-64
2021/11/29 05:02:42;;;;;;;5.77;3.47;;;;;;;;;;2071635;28;20648;-63
2021/11/29 05:03:42;;;;;;;4.60;3.17;;;;;;;;;;2073544;28;20165;-64
2021/11/29 05:04:46;;;;;;;6.07;2.80;;;;;;;;;;2071291;28;20547;-62
2021/11/29 05:05:47;;;;;;;4.23;2.97;;;;;;;;;;2074214;28;20168;-61
2021/11/29 05:06:47;;;;;;;7.60;3.83;;;;;;;;;;2073219;28;20165;-61
2021/11/29 05:07:47;;;;;;;4.70;3.00;;;;;;;;;;2073500;28;20199;-63
2021/11/29 05:08:48;;;;;;;8.73;2.97;;;;;;;;;;2072619;28;20673;-62
2021/11/29 05:09:48;;;;;;;8.17;2.90;;;;;;;;;;2074206;28;20177;-60
2021/11/29 05:10:49;;;;;;;6.33;3.10;;;;;;;;;;2077001;28;20161;-64
2021/11/29 05:11:49;;;;;;;3.80;2.47;;;;;;;;;;2078207;28;20599;-62
2021/11/29 05:12:49;;;;;;;6.10;3.10;;;;;;;;;;2073696;28;20185;-63
2021/11/29 05:13:50;;;;;;;4.70;2.53;;;;;;;;;;2073412;28;20576;-64
2021/11/29 05:14:50;;;;;;;3.10;2.70;;;;;;;;;;2073458;28;20177;-62
2021/11/29 05:15:50;;;;;;;5.00;2.80;;;;;;;;;;2073814;28;20211;-66
2021/11/29 05:16:51;;;;;;;3.00;2.80;;;;;;;;;;2073059;28;20176;-64
2021/11/29 05:17:51;;;;;;;3.60;2.83;;;;;;;;;;2073596;28;20633;-64
2021/11/29 05:18:51;;;;;;;4.37;2.60;;;;;;;;;;2073897;28;20184;-64
2021/11/29 05:19:53;;;;;;;3.53;3.20;;;;;;;;;;2073131;28;20193;-64
2021/11/29 05:20:53;;;;;;;4.93;2.77;;;;;;;;;;2065163;28;20570;-65
2021/11/29 05:21:53;;;;;;;4.47;2.90;;;;;;;;;;2064534;28;20420;-65
2021/11/29 05:22:54;;;;;;;3.93;2.80;;;;;;;;;;2070334;28;20200;-65
2021/11/29 05:23:54;;;;;;;4.60;3.13;;;;;;;;;;2072605;28;20192;-62
2021/11/29 05:24:54;;;;;;;6.37;2.50;;;;;;;;;;2064633;28;20201;-63
2021/11/29 05:25:54;;;;;;;4.53;2.70;;;;;;;;;;2072044;28;20176;-64
2021/11/29 05:26:55;;;;;;;6.03;2.50;;;;;;;;;;2072637;28;20255;-63
2021/11/29 05:27:55;;;;;;;4.87;3.30;;;;;;;;;;2072258;28;20231;-65
2021/11/29 05:28:57;;;;;;;3.27;2.60;;;;;;;;;;2073862;28;20200;-64
2021/11/29 05:29:57;;;;;;;6.63;2.90;;;;;;;;;;2072512;28;20185;-64
2021/11/29 05:30:58;;;;;;;5.10;3.00;;;;;;;;;;2072852;28;20209;-64
2021/11/29 05:31:58;;;;;;;3.70;2.90;;;;;;;;;;2071960;28;20200;-65
2021/11/29 05:32:58;;;;;;;3.20;2.90;;;;;;;;;;2073407;28;20255;-64
2021/11/29 05:33:59;;;;;;;3.77;3.00;;;;;;;;;;2073402;28;20169;-63
2021/11/29 05:34:59;;;;;;;7.00;2.93;;;;;;;;;;2072881;28;20259;-64
2021/11/29 05:35:59;;;;;;;6.47;3.30;;;;;;;;;;2073388;28;20179;-65
2021/11/29 05:37:00;;;;;;;6.47;2.90;;;;;;;;;;2073755;28;20197;-65
2021/11/29 05:38:01;;;;;;;6.30;2.90;;;;;;;;;;2067948;28;20236;-62
2021/11/29 05:39:01;;;;;;;4.13;3.13;;;;;;;;;;2069159;28;20643;-64
2021/11/29 05:40:02;;;;;;;4.70;3.40;;;;;;;;;;2072562;28;20169;-64
2021/11/29 05:41:03;;;;;;;3.53;2.43;;;;;;;;;;2069732;28;20181;-64
2021/11/29 05:42:03;;;;;;;2.83;2.63;;;;;;;;;;2064418;28;20782;-64
2021/11/29 05:43:04;;;;;;;7.03;2.97;;;;;;;;;;2063507;28;20182;-63
2021/11/29 05:44:04;;;;;;;4.97;3.07;;;;;;;;;;2072851;28;20169;-64
2021/11/29 05:45:04;;;;;;;6.57;3.40;;;;;;;;;;2072349;28;20727;-65
2021/11/29 05:46:07;;;;;;;5.20;2.90;;;;;;;;;;2072831;28;20189;-63
2021/11/29 05:47:07;;;;;;;4.40;2.77;;;;;;;;;;2073577;28;20184;-65
2021/11/29 05:48:08;;;;;;;4.50;2.50;;;;;;;;;;2073618;28;20177;-64
2021/11/29 05:49:08;;;;;;;5.90;2.80;;;;;;;;;;2073634;28;20165;-64
2021/11/29 05:50:09;;;;;;;3.43;2.53;;;;;;;;;;2072651;28;20724;-64
2021/11/29 05:51:10;;;;;;;6.60;2.83;;;;;;;;;;2073495;28;20303;-61
2021/11/29 05:52:10;;;;;;;3.27;2.93;;;;;;;;;;2073697;28;20554;-61
2021/11/29 05:53:10;;;;;;;3.50;2.47;;;;;;;;;;2073862;28;20187;-61
2021/11/29 05:54:11;;;;;;;3.63;2.47;;;;;;;;;;2073471;28;20253;-62
2021/11/29 05:55:12;;;;;;;3.50;2.53;;;;;;;;;;2067565;28;20260;-63
2021/11/29 05:56:13;;;;;;;3.73;2.10;;;;;;;;;;2073939;28;20212;-63
2021/11/29 05:57:13;;;;;;;5.63;2.90;;;;;;;;;;2073949;28;20176;-64
2021/11/29 05:58:13;;;;;;;4.03;2.70;;;;;;;;;;2071609;28;20259;-58
2021/11/29 05:59:14;;;;;;;4.80;2.60;;;;;;;;;;2073154;28;20643;-64
2021/11/29 06:00:15;;;;;;;4.27;2.73;;;;;;;;;;2073821;28;20219;-62
2021/11/29 06:01:16;;;;;;;3.10;2.67;;;;;;;;;;2073232;28;20339;-59
2021/11/29 06:02:16;;;;;;;3.43;2.30;;;;;;;;;;2072776;28;20847;-65
2021/11/29 06:03:17;;;;;;;3.87;2.60;;;;;;;;;;2094676;22;20227;-55